Time;durP1;ratioP1;P1;durP2;ratioP2;P2;SDS_P1;SDS_P2;PMS_P1;PMS_P2;Temp;Humidity;BMP_temperature;BMP_pressure;BME280_temperature;BME280_humidity;BME280_pressure;Samples;Min_cycle;Max_cycle;Signal;HPM_P1;HPM_P2
2021/09/04 00:00:10;;;;;;;;;;;;;;;14.42;76.53;97018.75;30001;983;1879;-62
2021/09/04 00:00:41;;;;;;;;;;;;;;;14.41;76.15;97011.66;30001;983;1875;-60
2021/09/04 00:01:12;;;;;;;;;;;;;;;14.43;76.10;97011.38;30001;983;1880;-61
2021/09/04 00:01:43;;;;;;;;;;;;;;;14.42;76.12;97013.28;30001;983;1875;-62
2021/09/04 00:02:14;;;;;;;;;;;;;;;14.43;76.30;97014.91;30001;982;1880;-62
2021/09/04 00:02:44;;;;;;;;;;;;;;;14.44;75.97;97015.69;30001;982;1875;-61
2021/09/04 00:03:15;;;;;;;;;;;;;;;14.44;76.00;97011.03;30001;982;1880;-62
2021/09/04 00:03:46;;;;;;;;;;;;;;;14.43;75.98;97006.72;30001;982;1858;-61
2021/09/04 00:04:17;;;;;;;;;;;;;;;14.43;75.73;97012.16;30001;982;1858;-60
2021/09/04 00:04:48;;;;;;;;;;;;;;;14.43;75.81;97003.97;30001;983;1776;-61
2021/09/04 00:05:18;;;;;;;;;;;;;;;14.45;75.87;97007.19;30001;983;1879;-62
2021/09/04 00:05:49;;;;;;;;;;;;;;;14.46;75.79;97006.09;30001;983;1875;-61
2021/09/04 00:06:20;;;;;;;;;;;;;;;14.46;75.72;97014.28;30001;983;1862;-61
2021/09/04 00:06:51;;;;;;;;;;;;;;;14.46;75.93;97008.81;30001;983;1871;-62
2021/09/04 00:07:23;;;;;;;;;;;;;;;14.47;75.65;97006.88;30001;983;1879;-62
2021/09/04 00:07:55;;;;;;;;;;;;;;;14.47;75.69;97010.41;30001;983;1875;-60
2021/09/04 00:08:26;;;;;;;;;;;;;;;14.48;75.64;97012.03;30001;983;1880;-60
2021/09/04 00:08:57;;;;;;;;;;;;;;;14.49;75.89;97010.91;30001;983;1875;-60
2021/09/04 00:09:27;;;;;;;;;;;;;;;14.47;75.55;97015.88;30001;983;1880;-61
2021/09/04 00:09:59;;;;;;;;;;;;;;;14.46;75.85;97011.53;30001;982;1875;-61
2021/09/04 00:10:30;;;;;;;;;;;;;;;14.47;75.84;97010.41;30001;982;1880;-61
2021/09/04 00:11:01;;;;;;;;;;;;;;;14.46;75.74;97014.28;30001;982;1876;-62
2021/09/04 00:11:33;;;;;;;;;;;;;;;14.45;75.55;97012.66;30001;982;1862;-62
2021/09/04 00:12:04;;;;;;;;;;;;;;;14.43;75.76;97014.91;30001;982;1871;-61
2021/09/04 00:12:35;;;;;;;;;;;;;;;14.43;75.79;97012.16;30001;983;1879;-61
2021/09/04 00:13:06;;;;;;;;;;;;;;;14.44;76.03;97010.25;30001;983;1875;-62
2021/09/04 00:13:37;;;;;;;;;;;;;;;14.44;76.00;97016.50;30001;983;1879;-61
2021/09/04 00:14:08;;;;;;;;;;;;;;;14.43;75.82;97014.91;30001;983;1875;-61
2021/09/04 00:14:39;;;;;;;;;;;;;;;14.44;75.59;97010.25;30001;983;1862;-66
2021/09/04 00:15:11;;;;;;;;;;;;;;;14.42;75.37;97013.28;30001;983;1871;-61
2021/09/04 00:15:41;;;;;;;;;;;;;;;14.41;75.79;97019.88;30001;983;1880;-61
2021/09/04 00:16:13;;;;;;;;;;;;;;;14.40;75.56;97016.28;30001;983;1875;-61
2021/09/04 00:16:43;;;;;;;;;;;;;;;14.40;75.67;97010.03;30001;983;1880;-62
2021/09/04 00:17:14;;;;;;;;;;;;;;;14.40;75.48;97007.31;30001;983;1782;-66
2021/09/04 00:17:45;;;;;;;;;;;;;;;14.40;75.48;97010.03;30001;982;1862;-61
2021/09/04 00:18:16;;;;;;;;;;;;;;;14.42;75.60;97007.81;30001;982;1871;-62
2021/09/04 00:18:47;;;;;;;;;;;;;;;14.41;75.54;97006.22;30001;982;1880;-61
2021/09/04 00:19:17;;;;;;;;;;;;;;;14.41;75.40;97012.47;30001;982;1876;-62
2021/09/04 00:19:48;;;;;;;;;;;;;;;14.42;75.47;97013.28;30001;982;1880;-60
2021/09/04 00:20:19;;;;;;;;;;;;;;;14.42;75.33;97010.56;30001;983;1857;-61
2021/09/04 00:20:50;;;;;;;;;;;;;;;14.40;75.35;97004.56;30001;983;1875;-67
2021/09/04 00:21:21;;;;;;;;;;;;;;;14.40;75.41;97010.84;30001;983;1875;-60
2021/09/04 00:21:53;;;;;;;;;;;;;;;14.41;75.33;97006.22;30001;983;1879;-61
2021/09/04 00:22:24;;;;;;;;;;;;;;;14.41;75.04;97008.94;30001;983;1875;-62
2021/09/04 00:22:55;;;;;;;;;;;;;;;14.40;75.26;97004.56;30001;983;1879;-63
2021/09/04 00:23:26;;;;;;;;;;;;;;;14.40;75.18;97001.84;30001;983;1875;-60
2021/09/04 00:23:57;;;;;;;;;;;;;;;14.40;75.23;97001.84;30001;983;1880;-61
2021/09/04 00:24:27;;;;;;;;;;;;;;;14.40;75.39;97002.66;30001;983;1875;-61
2021/09/04 00:24:58;;;;;;;;;;;;;;;14.41;75.15;97006.22;30001;982;1862;-61
2021/09/04 00:25:29;;;;;;;;;;;;;;;14.39;75.16;97003.75;30001;982;1871;-61
2021/09/04 00:26:00;;;;;;;;;;;;;;;14.39;75.43;97003.75;30001;982;1880;-59
2021/09/04 00:26:31;;;;;;;;;;;;;;;14.39;75.23;96998.31;30001;982;1876;-61
2021/09/04 00:27:01;;;;;;;;;;;;;;;14.38;75.34;97002.16;30001;982;1880;-60
2021/09/04 00:27:32;;;;;;;;;;;;;;;14.38;75.27;97001.34;30001;983;1857;-61
2021/09/04 00:28:04;;;;;;;;;;;;;;;14.37;75.23;96999.75;30001;983;1875;-61
2021/09/04 00:28:34;;;;;;;;;;;;;;;14.36;75.44;97003.59;30001;983;1875;-61
2021/09/04 00:29:05;;;;;;;;;;;;;;;14.35;75.23;96996.50;30001;983;1879;-62
2021/09/04 00:29:36;;;;;;;;;;;;;;;14.33;75.40;96999.56;30001;983;1857;-61
2021/09/04 00:30:08;;;;;;;;;;;;;;;14.32;75.37;96999.88;30001;983;1858;-63
2021/09/04 00:30:38;;;;;;;;;;;;;;;14.32;75.51;96997.13;30001;983;1858;-61
2021/09/04 00:31:09;;;;;;;;;;;;;;;14.31;75.37;97001.00;30001;983;1875;-62
2021/09/04 00:31:40;;;;;;;;;;;;;;;14.30;75.64;96991.19;30001;982;1875;-60
2021/09/04 00:32:11;;;;;;;;;;;;;;;14.29;75.58;96993.13;30001;982;1879;-60
2021/09/04 00:32:42;;;;;;;;;;;;;;;14.29;75.47;96997.75;30001;982;1875;-60
2021/09/04 00:33:13;;;;;;;;;;;;;;;14.29;75.61;97003.22;30001;982;1880;-62
2021/09/04 00:33:44;;;;;;;;;;;;;;;14.28;75.39;97001.62;30001;982;1875;-61
2021/09/04 00:34:15;;;;;;;;;;;;;;;14.28;75.37;97004.34;30001;982;1880;-60
2021/09/04 00:34:46;;;;;;;;;;;;;;;14.27;75.46;96997.28;30001;982;1876;-61
2021/09/04 00:35:17;;;;;;;;;;;;;;;14.28;75.54;96996.16;30001;983;1862;-61
2021/09/04 00:35:48;;;;;;;;;;;;;;;14.27;75.84;96994.53;30001;983;1871;-61
2021/09/04 00:36:19;;;;;;;;;;;;;;;14.27;75.81;97000.00;30001;983;1879;-61
2021/09/04 00:36:50;;;;;;;;;;;;;;;14.26;75.59;96998.37;30001;983;1875;-60
2021/09/04 00:37:21;;;;;;;;;;;;;;;14.24;75.75;96995.16;30001;983;1879;-60
2021/09/04 00:37:52;;;;;;;;;;;;;;;14.24;75.63;97000.63;30001;983;1875;-61
2021/09/04 00:38:23;;;;;;;;;;;;;;;14.23;75.86;96997.09;30001;983;1880;-61
2021/09/04 00:38:53;;;;;;;;;;;;;;;14.23;75.65;97002.53;30001;983;1858;-61
2021/09/04 00:39:24;;;;;;;;;;;;;;;14.22;76.01;97002.88;30001;982;1875;-60
2021/09/04 00:39:55;;;;;;;;;;;;;;;14.21;75.74;97001.25;30001;982;1875;-62
2021/09/04 00:40:26;;;;;;;;;;;;;;;14.20;75.92;97005.13;30001;982;1880;-61
2021/09/04 00:40:57;;;;;;;;;;;;;;;14.19;75.97;97000.78;30001;982;1876;-60
2021/09/04 00:41:28;;;;;;;;;;;;;;;14.19;76.04;96995.31;30001;982;1880;-61
2021/09/04 00:41:59;;;;;;;;;;;;;;;14.19;76.10;97006.25;30001;963;1895;-60
2021/09/04 00:42:30;;;;;;;;;;;;;;;14.18;76.16;96999.97;30001;983;1862;-61
2021/09/04 00:43:01;;;;;;;;;;;;;;;14.18;76.11;96999.97;30001;983;1871;-61
2021/09/04 00:43:32;;;;;;;;;;;;;;;14.17;76.20;97000.28;30001;983;1879;-61
2021/09/04 00:44:04;;;;;;;;;;;;;;;14.18;75.94;97001.91;30001;983;1875;-61
2021/09/04 00:44:34;;;;;;;;;;;;;;;14.16;76.25;96999.50;30001;983;1879;-61
2021/09/04 00:45:06;;;;;;;;;;;;;;;14.16;76.14;96994.03;30001;983;1858;-62
2021/09/04 00:45:37;;;;;;;;;;;;;;;14.15;76.28;96999.81;30001;983;1875;-60
2021/09/04 00:46:08;;;;;;;;;;;;;;;14.16;76.36;97001.41;30001;983;1875;-62
2021/09/04 00:46:39;;;;;;;;;;;;;;;14.16;76.12;96998.69;30001;983;1880;-61
2021/09/04 00:47:11;;;;;;;;;;;;;;;14.15;76.12;96997.87;30001;982;1875;-61
2021/09/04 00:47:55;;;;;;;;;;;;;;;14.14;76.46;96998.19;30001;982;1880;-61
2021/09/04 00:48:26;;;;;;;;;;;;;;;14.15;76.59;97010.72;30001;982;1858;-62
2021/09/04 00:48:57;;;;;;;;;;;;;;;14.15;76.39;97008.78;30001;982;1876;-61
2021/09/04 00:49:29;;;;;;;;;;;;;;;14.14;76.58;97003.66;30001;982;1876;-60
2021/09/04 00:49:59;;;;;;;;;;;;;;;14.14;76.19;97003.66;30001;982;1880;-61
2021/09/04 00:50:31;;;;;;;;;;;;;;;14.14;76.38;97009.09;30001;983;1875;-62
2021/09/04 00:51:04;;;;;;;;;;;;;;;14.14;76.51;96995.47;30001;983;1879;-60
2021/09/04 00:51:35;;;;;;;;;;;;;;;14.14;76.87;97001.72;30001;983;1875;-62
2021/09/04 00:52:06;;;;;;;;;;;;;;;14.15;76.62;97002.53;30001;983;1879;-61
2021/09/04 00:52:37;;;;;;;;;;;;;;;14.15;76.49;97002.53;30001;983;1875;-62
2021/09/04 00:53:09;;;;;;;;;;;;;;;14.15;76.42;97005.25;30001;983;1880;-61
2021/09/04 00:53:40;;;;;;;;;;;;;;;14.17;76.60;97005.75;30001;983;1858;-60
2021/09/04 00:54:11;;;;;;;;;;;;;;;14.16;76.65;96999.50;30001;983;1875;-60
2021/09/04 00:54:43;;;;;;;;;;;;;;;14.17;76.66;97001.09;30001;982;1858;-62
2021/09/04 00:55:14;;;;;;;;;;;;;;;14.17;76.68;97000.28;30001;982;1876;-61
2021/09/04 00:55:44;;;;;;;;;;;;;;;14.16;76.64;96999.50;30001;982;1876;-60
2021/09/04 00:56:15;;;;;;;;;;;;;;;14.16;76.57;97001.41;30001;982;1880;-61
2021/09/04 00:56:47;;;;;;;;;;;;;;;14.16;76.64;96998.69;30001;982;1858;-62
2021/09/04 00:57:19;;;;;;;;;;;;;;;14.16;76.31;96993.22;30001;982;1858;-61
2021/09/04 00:57:50;;;;;;;;;;;;;;;14.15;76.64;96997.06;30001;983;1875;-62
2021/09/04 00:58:21;;;;;;;;;;;;;;;14.15;76.58;96999.81;30001;983;1879;-60
2021/09/04 00:58:52;;;;;;;;;;;;;;;14.15;76.37;96997.06;30001;983;1875;-60
2021/09/04 00:59:24;;;;;;;;;;;;;;;14.14;76.39;96995.47;30001;983;1879;-61
2021/09/04 00:59:56;;;;;;;;;;;;;;;14.14;76.65;96992.72;30001;983;1875;-60
2021/09/04 01:00:29;;;;;;;;;;;;;;;14.13;76.33;96996.56;30001;983;1862;-61
2021/09/04 01:01:00;;;;;;;;;;;;;;;14.11;76.44;96996.88;30001;983;1871;-61
2021/09/04 01:01:30;;;;;;;;;;;;;;;14.11;76.76;96990.63;30001;983;1880;-62
2021/09/04 01:02:03;;;;;;;;;;;;;;;14.11;76.40;96996.09;30001;982;1858;-61
2021/09/04 01:02:34;;;;;;;;;;;;;;;14.09;76.59;96994.47;30001;982;1875;-62
2021/09/04 01:03:05;;;;;;;;;;;;;;;14.08;76.75;96987.41;30001;982;1876;-62
2021/09/04 01:03:36;;;;;;;;;;;;;;;14.09;76.70;96994.47;30001;982;1880;-60
2021/09/04 01:04:07;;;;;;;;;;;;;;;14.09;76.66;96994.47;30001;982;1858;-61
2021/09/04 01:04:38;;;;;;;;;;;;;;;14.08;76.88;96998.31;30001;983;1875;-61
2021/09/04 01:05:09;;;;;;;;;;;;;;;14.09;76.47;96990.94;30001;983;1875;-61
2021/09/04 01:05:40;;;;;;;;;;;;;;;14.08;76.67;97001.03;30001;983;1879;-62
2021/09/04 01:06:13;;;;;;;;;;;;;;;14.08;76.39;96992.84;30001;983;1875;-61
2021/09/04 01:06:44;;;;;;;;;;;;;;;14.09;76.58;96999.13;30001;983;1879;-61
2021/09/04 01:07:15;;;;;;;;;;;;;;;14.09;76.44;96999.13;30001;983;1875;-60
2021/09/04 01:07:47;;;;;;;;;;;;;;;14.11;76.43;97007.00;30001;983;1880;-62
2021/09/04 01:08:18;;;;;;;;;;;;;;;14.10;76.54;96995.28;30001;983;1875;-69
2021/09/04 01:08:49;;;;;;;;;;;;;;;14.10;76.29;97000.72;30001;983;1862;-60
2021/09/04 01:09:19;;;;;;;;;;;;;;;14.08;76.31;96997.50;30001;982;1871;-61
2021/09/04 01:09:50;;;;;;;;;;;;;;;14.07;76.55;96998.63;30001;982;1880;-62
2021/09/04 01:10:21;;;;;;;;;;;;;;;14.07;76.73;97004.09;30001;982;1876;-62
2021/09/04 01:10:53;;;;;;;;;;;;;;;14.04;76.63;96997.31;30001;982;1880;-60
2021/09/04 01:11:24;;;;;;;;;;;;;;;14.04;76.59;96996.53;30001;982;1783;-60
2021/09/04 01:11:55;;;;;;;;;;;;;;;14.03;76.78;96998.44;30001;983;1879;-62
2021/09/04 01:12:26;;;;;;;;;;;;;;;14.03;76.44;96995.72;30001;983;1774;-61
2021/09/04 01:12:58;;;;;;;;;;;;;;;14.03;76.74;96995.72;30001;983;1862;-62
2021/09/04 01:13:29;;;;;;;;;;;;;;;14.02;76.61;96996.84;30001;983;1871;-62
2021/09/04 01:14:00;;;;;;;;;;;;;;;14.00;76.89;96993.59;30001;983;1879;-61
2021/09/04 01:14:31;;;;;;;;;;;;;;;14.01;76.83;96992.50;30001;983;1875;-60
2021/09/04 01:15:02;;;;;;;;;;;;;;;14.00;77.07;96999.06;30001;983;1879;-64
2021/09/04 01:15:36;;;;;;;;;;;;;;;14.00;77.08;97001.00;30001;983;1875;-61
2021/09/04 01:16:07;;;;;;;;;;;;;;;13.99;76.49;96999.38;30001;983;1880;-62
2021/09/04 01:16:38;;;;;;;;;;;;;;;13.98;76.66;96998.56;30001;983;1875;-61
2021/09/04 01:17:09;;;;;;;;;;;;;;;13.96;76.99;96994.53;30001;982;1880;-61
2021/09/04 01:17:40;;;;;;;;;;;;;;;13.96;77.06;96995.34;30001;982;1858;-61
2021/09/04 01:18:11;;;;;;;;;;;;;;;13.95;76.73;96991.00;30001;975;1858;-62
2021/09/04 01:18:42;;;;;;;;;;;;;;;13.94;76.93;96997.56;30001;982;1876;-62
2021/09/04 01:19:13;;;;;;;;;;;;;;;13.93;77.11;96990.50;30001;982;1880;-61
2021/09/04 01:19:43;;;;;;;;;;;;;;;13.93;77.10;96993.25;30001;983;1875;-62
2021/09/04 01:20:17;;;;;;;;;;;;;;;13.92;77.21;96994.34;30001;983;1879;-60
2021/09/04 01:20:47;;;;;;;;;;;;;;;13.92;77.29;96988.91;30001;983;1857;-62
2021/09/04 01:21:18;;;;;;;;;;;;;;;13.92;77.04;96988.09;30001;983;1875;-63
2021/09/04 01:21:49;;;;;;;;;;;;;;;13.91;77.02;96989.22;30001;983;1875;-62
2021/09/04 01:22:20;;;;;;;;;;;;;;;13.90;76.95;96985.69;30001;983;1879;-61
2021/09/04 01:22:51;;;;;;;;;;;;;;;13.89;77.42;96988.72;30001;983;1875;-61
2021/09/04 01:23:21;;;;;;;;;;;;;;;13.88;77.48;96981.66;30001;983;1880;-62
2021/09/04 01:23:52;;;;;;;;;;;;;;;13.88;77.38;96987.09;30001;983;1875;-60
2021/09/04 01:24:23;;;;;;;;;;;;;;;13.88;77.46;96987.09;30001;983;1880;-62
2021/09/04 01:24:54;;;;;;;;;;;;;;;13.87;77.47;96989.03;30001;975;1894;-61
2021/09/04 01:25:28;;;;;;;;;;;;;;;13.87;77.48;96985.50;30001;982;1880;-62
2021/09/04 01:26:03;;;;;;;;;;;;;;;13.86;77.33;96984.69;30001;982;1858;-62
2021/09/04 01:26:35;;;;;;;;;;;;;;;13.84;77.29;96986.94;30002;982;1876;-60
2021/09/04 01:27:06;;;;;;;;;;;;;;;13.83;77.79;96984.53;30002;983;1875;-60
2021/09/04 01:27:38;;;;;;;;;;;;;;;13.81;77.77;96978.59;30002;983;1879;-61
2021/09/04 01:28:09;;;;;;;;;;;;;;;13.79;77.40;96978.88;30002;983;1875;-61
2021/09/04 01:28:40;;;;;;;;;;;;;;;13.78;78.16;96985.47;30002;983;1879;-61
2021/09/04 01:29:11;;;;;;;;;;;;;;;13.78;78.17;96982.72;30002;983;1875;-62
2021/09/04 01:29:42;;;;;;;;;;;;;;;13.76;77.75;96984.97;30002;983;1879;-62
2021/09/04 01:30:13;;;;;;;;;;;;;;;13.75;77.96;96977.91;30002;983;1858;-62
2021/09/04 01:30:45;;;;;;;;;;;;;;;13.74;77.96;96979.00;30002;983;1875;-61
2021/09/04 01:31:16;;;;;;;;;;;;;;;13.73;78.01;96978.22;30002;983;1875;-61
2021/09/04 01:31:48;;;;;;;;;;;;;;;13.72;78.33;96981.25;30002;983;1880;-61
2021/09/04 01:32:19;;;;;;;;;;;;;;;13.71;78.39;96982.34;30002;982;1875;-60
2021/09/04 01:32:49;;;;;;;;;;;;;;;13.69;78.19;96979.12;30002;982;1862;-61
2021/09/04 01:33:20;;;;;;;;;;;;;;;13.68;78.37;96978.31;30002;985;1871;-62
2021/09/04 01:33:51;;;;;;;;;;;;;;;13.68;78.47;96982.97;30002;982;1863;-62
2021/09/04 01:34:22;;;;;;;;;;;;;;;13.67;78.49;96984.09;30002;982;1871;-61
2021/09/04 01:34:53;;;;;;;;;;;;;;;13.66;78.41;96987.94;30002;983;1879;-62
2021/09/04 01:35:25;;;;;;;;;;;;;;;13.66;78.57;96985.19;30002;983;1875;-62
2021/09/04 01:35:56;;;;;;;;;;;;;;;13.65;78.54;96980.88;30002;983;1879;-62
2021/09/04 01:36:28;;;;;;;;;;;;;;;13.63;78.59;96980.38;30002;983;1875;-62
2021/09/04 01:36:59;;;;;;;;;;;;;;;13.63;78.80;96985.81;30002;983;1862;-62
2021/09/04 01:37:30;;;;;;;;;;;;;;;13.61;78.44;96988.06;30002;983;1871;-61
2021/09/04 01:38:00;;;;;;;;;;;;;;;13.61;78.57;96988.06;30002;983;1880;-61
2021/09/04 01:38:31;;;;;;;;;;;;;;;13.61;78.60;96988.06;30002;983;1875;-60
2021/09/04 01:39:03;;;;;;;;;;;;;;;13.60;78.56;96984.53;30002;982;1862;-61
2021/09/04 01:39:34;;;;;;;;;;;;;;;13.60;78.90;96989.16;30002;982;1854;-61
2021/09/04 01:40:11;;;;;;;;;;;;;;;13.58;78.71;96986.75;30002;982;1880;-61
2021/09/04 01:40:42;;;;;;;;;;;;;;;13.59;78.50;96984.81;30002;982;1876;-61
2021/09/04 01:41:14;;;;;;;;;;;;;;;13.58;78.98;96984.03;30002;987;1880;-61
2021/09/04 01:41:45;;;;;;;;;;;;;;;13.58;78.86;96983.22;30002;982;1876;-61
2021/09/04 01:42:16;;;;;;;;;;;;;;;13.56;79.14;96983.53;30002;983;1879;-62
2021/09/04 01:42:47;;;;;;;;;;;;;;;13.56;78.97;96986.25;30002;983;1875;-60
2021/09/04 01:43:18;;;;;;;;;;;;;;;13.55;79.06;96981.91;30002;983;1879;-61
2021/09/04 01:43:49;;;;;;;;;;;;;;;13.55;78.67;96981.09;30002;983;1875;-61
2021/09/04 01:44:20;;;;;;;;;;;;;;;13.54;78.92;96979.50;30002;983;1879;-61
2021/09/04 01:44:51;;;;;;;;;;;;;;;13.54;78.89;96976.75;30002;983;1858;-61
2021/09/04 01:45:22;;;;;;;;;;;;;;;13.55;78.91;96976.47;30002;983;1875;-60
2021/09/04 01:45:55;;;;;;;;;;;;;;;13.54;78.72;96977.56;30002;983;1875;-61
2021/09/04 01:46:26;;;;;;;;;;;;;;;13.55;78.91;96975.66;30002;982;1880;-61
2021/09/04 01:46:57;;;;;;;;;;;;;;;13.55;78.59;96972.94;30002;982;1875;-61
2021/09/04 01:47:28;;;;;;;;;;;;;;;13.53;78.62;96975.97;30002;982;1880;-61
2021/09/04 01:47:59;;;;;;;;;;;;;;;13.54;78.73;96984.94;30002;982;1876;-60
2021/09/04 01:48:29;;;;;;;;;;;;;;;13.53;78.96;96975.16;30002;971;1899;-62
2021/09/04 01:49:01;;;;;;;;;;;;;;;13.53;78.61;96975.97;30002;982;1876;-62
2021/09/04 01:49:34;;;;;;;;;;;;;;;13.55;79.01;96978.38;30002;982;1863;-62
2021/09/04 01:50:11;;;;;;;;;;;;;;;13.52;78.96;96971.62;30002;983;1853;-61
2021/09/04 01:50:42;;;;;;;;;;;;;;;13.52;78.75;96974.34;30002;983;1879;-62
2021/09/04 01:51:13;;;;;;;;;;;;;;;13.51;79.04;96980.13;30002;983;1875;-62
2021/09/04 01:51:44;;;;;;;;;;;;;;;13.50;79.15;96984.78;30002;983;1879;-61
2021/09/04 01:52:15;;;;;;;;;;;;;;;13.48;79.28;96978.03;30002;983;1858;-63
2021/09/04 01:52:47;;;;;;;;;;;;;;;13.46;79.72;96980.25;30002;983;1875;-64
2021/09/04 01:53:18;;;;;;;;;;;;;;;13.45;79.68;96973.19;30002;983;1858;-61
2021/09/04 01:53:49;;;;;;;;;;;;;;;13.44;79.79;96966.13;30002;982;1858;-61
2021/09/04 01:54:20;;;;;;;;;;;;;;;13.43;79.43;96976.22;30002;982;1875;-61
2021/09/04 01:54:51;;;;;;;;;;;;;;;13.43;79.06;96975.41;30002;982;1880;-62
2021/09/04 01:55:23;;;;;;;;;;;;;;;13.43;79.05;96976.22;30002;982;1876;-62
2021/09/04 01:55:53;;;;;;;;;;;;;;;13.44;79.30;96977.03;30002;982;1880;-62
2021/09/04 01:56:24;;;;;;;;;;;;;;;13.45;78.98;96973.19;30002;982;1876;-60
2021/09/04 01:56:55;;;;;;;;;;;;;;;13.45;78.69;96975.91;30002;982;1863;-61
2021/09/04 01:57:26;;;;;;;;;;;;;;;13.44;79.03;96961.47;30002;983;1871;-65
2021/09/04 01:57:57;;;;;;;;;;;;;;;13.45;79.07;96973.19;30002;983;1879;-62
2021/09/04 01:58:28;;;;;;;;;;;;;;;13.44;78.96;96972.38;30002;983;1857;-61
2021/09/04 01:58:59;;;;;;;;;;;;;;;13.44;78.81;96972.38;30002;983;1875;-68
2021/09/04 01:59:30;;;;;;;;;;;;;;;13.44;79.00;96966.13;30002;983;1875;-60
2021/09/04 02:00:01;;;;;;;;;;;;;;;13.45;78.82;96967.75;30002;983;1880;-62
2021/09/04 02:00:31;;;;;;;;;;;;;;;13.45;78.36;96967.75;30002;983;1875;-61
2021/09/04 02:01:03;;;;;;;;;;;;;;;13.45;78.74;96965.81;30002;983;1880;-61
2021/09/04 02:01:34;;;;;;;;;;;;;;;13.45;78.39;96971.28;30002;982;1875;-62
2021/09/04 02:02:06;;;;;;;;;;;;;;;13.46;78.62;96961.97;30002;982;1880;-62
2021/09/04 02:02:38;;;;;;;;;;;;;;;13.46;78.35;96963.91;30002;982;1876;-61
2021/09/04 02:03:10;;;;;;;;;;;;;;;13.45;78.63;96967.75;30002;982;1880;-60
2021/09/04 02:03:41;;;;;;;;;;;;;;;13.44;78.71;96966.13;30002;982;1858;-60
2021/09/04 02:04:11;;;;;;;;;;;;;;;13.41;78.91;96968.34;30002;982;1876;-64
2021/09/04 02:04:42;;;;;;;;;;;;;;;13.40;78.50;96972.19;30002;983;1875;-62
2021/09/04 02:05:13;;;;;;;;;;;;;;;13.41;78.91;96968.34;30002;983;1879;-61
2021/09/04 02:05:45;;;;;;;;;;;;;;;13.40;79.19;96966.75;30002;983;1782;-61
2021/09/04 02:06:15;;;;;;;;;;;;;;;13.38;79.13;96968.97;30002;983;1879;-61
2021/09/04 02:06:46;;;;;;;;;;;;;;;13.37;78.72;96967.34;30002;983;1875;-61
2021/09/04 02:07:17;;;;;;;;;;;;;;;13.36;79.06;96965.75;30002;983;1880;-62
2021/09/04 02:07:48;;;;;;;;;;;;;;;13.36;78.74;96970.38;30002;983;1875;-61
2021/09/04 02:08:19;;;;;;;;;;;;;;;13.35;79.38;96966.06;30002;983;1880;-61
2021/09/04 02:08:50;;;;;;;;;;;;;;;13.34;79.30;96969.88;30002;983;1858;-63
2021/09/04 02:09:20;;;;;;;;;;;;;;;13.32;79.28;96969.41;30002;982;1875;-61
2021/09/04 02:09:51;;;;;;;;;;;;;;;13.30;79.30;96961.53;30002;982;1875;-62
2021/09/04 02:10:22;;;;;;;;;;;;;;;13.30;79.30;96972.44;30002;982;1880;-62
2021/09/04 02:10:53;;;;;;;;;;;;;;;13.31;79.03;96967.78;30002;982;1876;-61
2021/09/04 02:11:24;;;;;;;;;;;;;;;13.29;80.00;96970.81;30002;982;1880;-60
2021/09/04 02:11:54;;;;;;;;;;;;;;;13.26;79.44;96968.69;30002;983;1875;-61
2021/09/04 02:12:25;;;;;;;;;;;;;;;13.26;79.77;96967.91;30002;983;1879;-62
2021/09/04 02:12:56;;;;;;;;;;;;;;;13.26;79.80;96965.97;30002;983;1857;-61
2021/09/04 02:13:30;;;;;;;;;;;;;;;13.25;79.37;96964.38;30002;983;1875;-61
2021/09/04 02:14:01;;;;;;;;;;;;;;;13.25;79.55;96958.91;30002;983;1858;-63
2021/09/04 02:14:32;;;;;;;;;;;;;;;13.24;79.49;96968.19;30002;983;1875;-61
2021/09/04 02:15:05;;;;;;;;;;;;;;;13.24;79.63;96962.75;30002;983;1875;-61
2021/09/04 02:15:36;;;;;;;;;;;;;;;13.22;79.91;96970.44;30002;983;1880;-62
2021/09/04 02:16:07;;;;;;;;;;;;;;;13.22;79.93;96964.97;30002;983;1875;-62
2021/09/04 02:16:37;;;;;;;;;;;;;;;13.19;80.33;96960.16;30002;982;1880;-61
2021/09/04 02:17:08;;;;;;;;;;;;;;;13.20;80.29;96966.41;30002;982;1875;-62
2021/09/04 02:17:39;;;;;;;;;;;;;;;13.18;80.18;96963.97;30002;982;1862;-61
2021/09/04 02:18:10;;;;;;;;;;;;;;;13.17;80.43;96959.66;30001;982;1871;-62
2021/09/04 02:18:41;;;;;;;;;;;;;;;13.16;80.41;96960.78;30001;982;1880;-62
2021/09/04 02:19:11;;;;;;;;;;;;;;;13.16;80.21;96968.97;30001;983;1875;-60
2021/09/04 02:19:46;;;;;;;;;;;;;;;13.15;80.65;96964.59;30001;983;1879;-61
2021/09/04 02:20:16;;;;;;;;;;;;;;;13.13;80.23;96966.00;30001;983;1875;-62
2021/09/04 02:20:48;;;;;;;;;;;;;;;13.11;80.40;96969.03;30001;983;1879;-62
2021/09/04 02:21:19;;;;;;;;;;;;;;;13.10;81.19;96972.88;30002;983;1857;-61
2021/09/04 02:21:50;;;;;;;;;;;;;;;13.09;80.48;96976.72;30001;983;1875;-62
2021/09/04 02:22:20;;;;;;;;;;;;;;;13.08;80.60;96969.66;30001;983;1858;-63
2021/09/04 02:22:52;;;;;;;;;;;;;;;13.08;80.40;96969.66;30001;983;1858;-59
2021/09/04 02:23:22;;;;;;;;;;;;;;;13.08;80.29;96970.47;30001;983;1875;-62
2021/09/04 02:23:53;;;;;;;;;;;;;;;13.08;80.38;96975.09;30001;983;1880;-61
2021/09/04 02:24:24;;;;;;;;;;;;;;;13.06;80.49;96967.22;30001;982;1875;-61
2021/09/04 02:24:55;;;;;;;;;;;;;;;13.06;80.25;96963.69;30001;982;1833;-61
2021/09/04 02:25:29;;;;;;;;;;;;;;;13.05;80.36;96967.53;30001;982;1876;-62
2021/09/04 02:26:00;;;;;;;;;;;;;;;13.04;80.38;96966.72;30001;982;1880;-62
2021/09/04 02:26:31;;;;;;;;;;;;;;;13.05;80.42;96970.25;30001;983;1875;-60
2021/09/04 02:27:02;;;;;;;;;;;;;;;13.03;80.12;96972.47;30001;983;1879;-62
2021/09/04 02:27:33;;;;;;;;;;;;;;;13.03;80.22;96967.84;30001;983;1857;-61
2021/09/04 02:28:04;;;;;;;;;;;;;;;13.02;80.46;96965.41;30001;983;1875;-62
2021/09/04 02:28:35;;;;;;;;;;;;;;;13.01;80.58;96964.62;30001;983;1875;-61
2021/09/04 02:29:06;;;;;;;;;;;;;;;13.00;80.86;96967.66;30001;983;1879;-62
2021/09/04 02:29:37;;;;;;;;;;;;;;;13.00;80.91;96962.19;30001;971;1895;-61
2021/09/04 02:30:08;;;;;;;;;;;;;;;13.00;80.74;96964.91;30001;983;1880;-62
2021/09/04 02:30:39;;;;;;;;;;;;;;;12.99;80.49;96961.38;30001;983;1875;-62
2021/09/04 02:31:10;;;;;;;;;;;;;;;12.99;81.01;96960.59;30001;983;1880;-62
2021/09/04 02:31:41;;;;;;;;;;;;;;;12.98;80.55;96954.34;30001;982;1875;-61
2021/09/04 02:32:12;;;;;;;;;;;;;;;12.97;80.96;96962.81;30001;971;1891;-61
2021/09/04 02:32:43;;;;;;;;;;;;;;;12.97;80.60;96965.53;30001;982;1858;-61
2021/09/04 02:33:14;;;;;;;;;;;;;;;12.97;80.52;96958.16;30001;982;1876;-62
2021/09/04 02:33:45;;;;;;;;;;;;;;;12.97;80.68;96955.44;30001;982;1876;-61
2021/09/04 02:34:16;;;;;;;;;;;;;;;12.96;80.74;96961.19;30001;983;1879;-61
2021/09/04 02:34:47;;;;;;;;;;;;;;;12.96;80.52;96958.47;30001;983;1875;-61
2021/09/04 02:35:17;;;;;;;;;;;;;;;12.97;80.36;96957.34;30001;983;1879;-62
2021/09/04 02:35:48;;;;;;;;;;;;;;;12.97;80.54;96957.34;30001;983;1875;-61
2021/09/04 02:36:19;;;;;;;;;;;;;;;12.98;80.51;96953.53;30001;983;1879;-61
2021/09/04 02:36:50;;;;;;;;;;;;;;;12.97;80.17;96955.44;30001;983;1875;-62
2021/09/04 02:37:21;;;;;;;;;;;;;;;12.97;80.21;96957.34;30001;983;1862;-60
2021/09/04 02:37:52;;;;;;;;;;;;;;;12.97;79.93;96952.72;30001;983;1871;-60
2021/09/04 02:38:23;;;;;;;;;;;;;;;12.98;80.25;96948.06;30001;982;1880;-61
2021/09/04 02:38:54;;;;;;;;;;;;;;;12.99;80.10;96955.13;30001;982;1875;-60
2021/09/04 02:39:25;;;;;;;;;;;;;;;13.00;80.32;96956.75;30001;982;1880;-60
2021/09/04 02:39:56;;;;;;;;;;;;;;;12.99;79.98;96952.41;30001;982;1876;-61
2021/09/04 02:40:26;;;;;;;;;;;;;;;13.01;80.31;96958.38;30001;982;1862;-62
2021/09/04 02:40:57;;;;;;;;;;;;;;;13.01;80.19;96952.91;30001;982;1871;-61
2021/09/04 02:41:28;;;;;;;;;;;;;;;13.00;80.25;96957.56;30001;982;1880;-61
2021/09/04 02:41:59;;;;;;;;;;;;;;;12.99;80.07;96960.59;30001;983;1875;-61
2021/09/04 02:42:30;;;;;;;;;;;;;;;13.00;80.27;96956.75;30001;983;1879;-61
2021/09/04 02:43:01;;;;;;;;;;;;;;;13.00;80.26;96951.31;30001;983;1834;-61
2021/09/04 02:43:32;;;;;;;;;;;;;;;13.00;79.92;96952.09;30001;983;1862;-61
2021/09/04 02:44:02;;;;;;;;;;;;;;;13.01;80.28;96958.38;30001;983;1853;-61
2021/09/04 02:44:33;;;;;;;;;;;;;;;13.00;79.95;96957.56;30001;983;1880;-62
2021/09/04 02:45:05;;;;;;;;;;;;;;;13.01;79.88;96958.38;30001;983;1875;-62
2021/09/04 02:45:36;;;;;;;;;;;;;;;13.01;80.03;96961.09;30001;983;1880;-61
2021/09/04 02:46:07;;;;;;;;;;;;;;;13.02;79.94;96949.09;30001;982;1875;-60
2021/09/04 02:46:38;;;;;;;;;;;;;;;13.02;80.13;96959.97;30001;982;1880;-62